createdAt,value
2023-03-21T00:01:54.188Z,4.45
2023-03-21T00:04:22.526Z,3.35
2023-03-21T00:06:49.758Z,3.15
2023-03-21T00:09:17.132Z,3.90
2023-03-21T00:11:44.017Z,3.60
2023-03-21T00:14:14.476Z,3.63
2023-03-21T00:16:41.850Z,2.83
2023-03-21T00:19:09.917Z,3.20
2023-03-21T00:21:49.148Z,3.40
2023-03-21T00:24:18.921Z,3.00
2023-03-21T00:26:46.148Z,3.63
2023-03-21T00:29:13.038Z,2.92
2023-03-21T00:31:39.974Z,3.22
2023-03-21T00:34:06.802Z,3.20
2023-03-21T00:36:33.661Z,2.78
2023-03-21T00:39:01.065Z,2.95
2023-03-21T00:41:41.479Z,3.10
2023-03-21T00:44:11.785Z,2.50
2023-03-21T00:46:57.410Z,3.15
2023-03-21T00:49:26.088Z,3.15
2023-03-21T00:51:55.322Z,2.78
2023-03-21T00:54:24.064Z,3.40
2023-03-21T00:56:50.899Z,2.97
2023-03-21T00:59:17.740Z,3.00
2023-03-21T01:01:46.780Z,3.13
2023-03-21T01:04:16.699Z,3.25
2023-03-21T01:06:44.472Z,3.50
2023-03-21T01:09:20.779Z,3.30
2023-03-21T01:11:48.852Z,3.55
2023-03-21T01:14:24.745Z,3.28
2023-03-21T01:16:53.242Z,3.83
2023-03-21T01:19:40.706Z,3.95
2023-03-21T01:22:12.357Z,4.00
2023-03-21T01:24:50.380Z,3.97
2023-03-21T01:27:19.082Z,3.72
2023-03-21T01:29:45.989Z,4.22
2023-03-21T01:32:12.722Z,4.10
2023-03-21T01:34:39.459Z,4.30
2023-03-21T01:37:06.345Z,5.15
2023-03-21T01:39:35.034Z,5.45
2023-03-21T01:42:01.858Z,4.32
2023-03-21T01:44:29.043Z,4.55
2023-03-21T01:47:12.580Z,4.80
2023-03-21T01:49:46.257Z,5.80
2023-03-21T01:52:29.850Z,5.07
2023-03-21T01:55:02.491Z,5.15
2023-03-21T01:57:51.921Z,4.80
2023-03-21T02:00:25.077Z,4.45
2023-03-21T02:02:58.036Z,4.25
2023-03-21T02:05:35.328Z,4.40
2023-03-21T02:08:02.617Z,4.20
2023-03-21T02:10:32.331Z,4.45
2023-03-21T02:13:09.381Z,4.22
2023-03-21T02:15:39.202Z,4.32
2023-03-21T02:18:14.370Z,4.45
2023-03-21T02:21:16.694Z,4.47
2023-03-21T02:23:58.639Z,4.05
2023-03-21T02:26:42.035Z,3.65
2023-03-21T02:29:48.463Z,6.22
2023-03-21T02:32:36.677Z,4.00
2023-03-21T02:35:34.049Z,4.10
2023-03-21T02:38:08.376Z,4.03
2023-03-21T02:41:00.411Z,3.72
2023-03-21T02:43:41.007Z,4.10
2023-03-21T02:46:17.303Z,4.70
2023-03-21T02:49:17.177Z,4.45
2023-03-21T02:51:46.621Z,4.00
2023-03-21T02:54:32.332Z,4.63
2023-03-21T02:57:04.489Z,4.28
2023-03-21T02:59:34.028Z,4.50
2023-03-21T03:02:03.082Z,4.50
2023-03-21T03:04:29.981Z,5.15
2023-03-21T03:07:03.292Z,4.70
2023-03-21T03:10:03.440Z,4.30
2023-03-21T03:12:43.139Z,4.05
2023-03-21T03:15:22.064Z,4.72
2023-03-21T03:17:48.810Z,4.15
2023-03-21T03:20:27.449Z,4.65
2023-03-21T03:23:20.254Z,4.43
2023-03-21T03:25:49.914Z,4.28
2023-03-21T03:28:23.486Z,4.53
2023-03-21T03:31:07.619Z,4.60
2023-03-21T03:33:39.849Z,4.60
2023-03-21T03:36:18.861Z,4.53
2023-03-21T03:38:57.427Z,4.60
2023-03-21T03:41:26.760Z,4.85
2023-03-21T03:43:58.001Z,4.90
2023-03-21T03:46:33.500Z,5.57
2023-03-21T03:49:15.799Z,4.53
2023-03-21T03:54:17.639Z,4.75
2023-03-21T03:56:45.312Z,4.75
2023-03-21T03:59:12.181Z,5.05
2023-03-21T04:01:39.036Z,5.07
2023-03-21T04:04:13.282Z,5.20
2023-03-21T04:06:41.467Z,4.50
2023-03-21T04:09:19.229Z,5.22
2023-03-21T04:11:47.356Z,5.15
2023-03-21T04:14:14.319Z,4.97
2023-03-21T04:16:41.168Z,5.07
2023-03-21T04:19:07.964Z,4.85
2023-03-21T04:21:34.805Z,4.50
2023-03-21T04:24:01.698Z,4.32
2023-03-21T04:26:33.053Z,5.20
2023-03-21T04:29:03.533Z,5.07
2023-03-21T04:31:33.905Z,4.90
2023-03-21T04:34:02.634Z,6.50
2023-03-21T04:36:38.994Z,7.72
2023-03-21T04:39:12.356Z,7.53
2023-03-21T04:41:44.164Z,7.63
2023-03-21T04:44:12.216Z,9.85
2023-03-21T04:46:39.796Z,10.73
2023-03-21T04:49:07.129Z,11.57
2023-03-21T04:51:34.431Z,10.18
2023-03-21T04:54:01.166Z,9.10
2023-03-21T04:56:36.417Z,8.45
2023-03-21T04:59:10.590Z,7.20
2023-03-21T05:01:37.364Z,6.60
2023-03-21T05:04:04.923Z,6.35
2023-03-21T05:06:32.149Z,5.85
2023-03-21T05:09:01.492Z,5.90
2023-03-21T05:11:30.856Z,5.90
2023-03-21T05:13:58.839Z,5.18
2023-03-21T05:16:30.495Z,5.75
2023-03-21T05:19:04.100Z,4.78
2023-03-21T05:21:34.258Z,5.10
2023-03-21T05:24:03.572Z,5.30
2023-03-21T05:26:30.405Z,5.53
2023-03-21T05:28:57.224Z,5.10
2023-03-21T05:31:24.045Z,5.68
2023-03-21T05:33:51.128Z,5.40
2023-03-21T05:36:17.910Z,4.97
2023-03-21T05:38:47.870Z,5.07
2023-03-21T05:41:18.169Z,5.00
2023-03-21T05:43:45.888Z,4.95
2023-03-21T05:46:13.285Z,4.65
2023-03-21T05:48:40.145Z,5.35
2023-03-21T05:51:07.007Z,5.15
2023-03-21T05:53:33.958Z,5.40
2023-03-21T05:56:00.796Z,5.05
2023-03-21T05:58:27.740Z,5.10
2023-03-21T06:00:54.834Z,5.25
2023-03-21T06:03:21.808Z,5.78
2023-03-21T06:05:48.636Z,5.57
2023-03-21T06:08:15.516Z,5.72
2023-03-21T06:10:42.374Z,5.95
2023-03-21T06:13:09.209Z,5.68
2023-03-21T06:15:36.250Z,5.72
2023-03-21T06:18:03.157Z,5.57
2023-03-21T06:20:30.243Z,6.47
2023-03-21T06:22:57.152Z,6.00
2023-03-21T06:25:24.113Z,5.85
2023-03-21T06:27:50.895Z,6.28
2023-03-21T06:30:18.435Z,5.13
2023-03-21T06:32:45.348Z,6.45
2023-03-21T06:35:12.256Z,6.28
2023-03-21T06:37:39.057Z,5.90
2023-03-21T06:40:09.072Z,6.28
2023-03-21T06:42:36.465Z,6.43
2023-03-21T06:45:03.643Z,6.38
2023-03-21T06:47:30.652Z,6.40
2023-03-21T06:49:57.513Z,6.25
2023-03-21T06:52:24.351Z,6.93
2023-03-21T06:54:51.212Z,6.15
2023-03-21T06:57:19.968Z,6.15
2023-03-21T06:59:47.589Z,5.68
2023-03-21T07:02:14.759Z,5.88
2023-03-21T07:04:41.606Z,5.50
2023-03-21T07:07:08.567Z,5.80
2023-03-21T07:09:35.370Z,5.95
2023-03-21T07:12:02.185Z,5.88
2023-03-21T07:14:30.004Z,6.15
2023-03-21T07:16:56.950Z,5.88
2023-03-21T07:19:23.660Z,5.75
2023-03-21T07:21:50.950Z,6.72
2023-03-21T07:24:17.692Z,7.40
2023-03-21T07:26:44.533Z,6.35
2023-03-21T07:29:11.254Z,6.65
2023-03-21T07:31:39.936Z,7.57
2023-03-21T07:34:06.882Z,7.18
2023-03-21T07:36:33.666Z,6.90
2023-03-21T07:39:00.703Z,6.88
2023-03-21T07:41:27.454Z,6.32
2023-03-21T07:43:54.213Z,6.53
2023-03-21T07:46:21.199Z,6.57
2023-03-21T07:48:48.044Z,5.97
2023-03-21T07:51:14.833Z,6.10
2023-03-21T07:53:42.049Z,5.80
2023-03-21T07:56:09.168Z,6.40
2023-03-21T07:58:35.944Z,6.10
2023-03-21T08:01:03.331Z,6.20
2023-03-21T08:03:31.591Z,5.97
2023-03-21T08:06:01.387Z,6.20
2023-03-21T08:08:28.324Z,5.90
2023-03-21T08:10:55.482Z,6.25
2023-03-21T08:13:23.038Z,6.43
2023-03-21T08:15:49.880Z,6.35
2023-03-21T08:18:16.697Z,5.82
2023-03-21T08:20:43.468Z,6.28
2023-03-21T08:23:10.374Z,6.15
2023-03-21T08:25:37.704Z,5.72
2023-03-21T08:28:04.688Z,6.35
2023-03-21T08:30:31.532Z,5.57
2023-03-21T08:33:01.381Z,6.15
2023-03-21T08:35:29.591Z,5.82
2023-03-21T08:37:56.336Z,5.07
2023-03-21T08:40:23.195Z,5.57
2023-03-21T08:42:49.994Z,5.68
2023-03-21T08:45:18.280Z,5.25
2023-03-21T08:47:46.191Z,6.50
2023-03-21T08:50:19.065Z,5.75
2023-03-21T08:52:46.723Z,6.03
2023-03-21T08:55:14.988Z,5.45
2023-03-21T08:57:42.670Z,5.10
2023-03-21T09:00:14.057Z,4.85
2023-03-21T09:02:42.234Z,4.97
2023-03-21T09:05:11.944Z,5.32
2023-03-21T09:07:40.525Z,5.80
2023-03-21T09:10:26.956Z,5.55
2023-03-21T09:12:55.456Z,5.30
2023-03-21T09:15:24.977Z,4.85
2023-03-21T09:17:54.184Z,4.97
2023-03-21T09:20:26.319Z,4.50
2023-03-21T09:22:53.860Z,4.68
2023-03-21T09:25:21.596Z,5.10
2023-03-21T09:27:48.747Z,4.05
2023-03-21T09:30:18.835Z,4.40
2023-03-21T09:32:48.692Z,4.38
2023-03-21T09:35:19.814Z,4.28
2023-03-21T09:37:47.843Z,4.30
2023-03-21T09:40:20.023Z,4.05
2023-03-21T09:42:46.808Z,4.15
2023-03-21T09:45:52.598Z,4.18
2023-03-21T09:48:57.460Z,3.85
2023-03-21T09:51:28.792Z,3.72
2023-03-21T09:53:57.707Z,3.57
2023-03-21T09:56:26.180Z,3.90
2023-03-21T09:58:59.482Z,3.75
2023-03-21T10:01:34.343Z,4.00
2023-03-21T10:04:05.896Z,4.15
2023-03-21T10:06:36.005Z,3.67
2023-03-21T10:09:07.668Z,3.85
2023-03-21T10:12:01.798Z,4.03
2023-03-21T10:14:33.188Z,4.15
2023-03-21T10:17:10.644Z,4.20
2023-03-21T10:19:37.442Z,4.22
2023-03-21T10:22:04.537Z,3.83
2023-03-21T10:24:34.040Z,3.67
2023-03-21T10:27:02.770Z,3.67
2023-03-21T10:29:42.324Z,3.90
2023-03-21T10:32:17.484Z,4.22
2023-03-21T10:37:24.982Z,4.35
2023-03-21T10:39:55.924Z,4.20
2023-03-21T10:42:29.678Z,4.40
2023-03-21T10:44:58.005Z,4.57
2023-03-21T10:47:33.956Z,4.10
2023-03-21T10:50:12.043Z,3.75
2023-03-21T10:52:47.985Z,3.70
2023-03-21T10:55:22.846Z,3.75
2023-03-21T10:57:57.683Z,4.13
2023-03-21T11:00:39.435Z,4.05
2023-03-21T11:03:08.372Z,3.80
2023-03-21T11:05:42.082Z,3.80
2023-03-21T11:08:16.077Z,4.10
2023-03-21T11:10:52.225Z,3.47
2023-03-21T11:13:25.746Z,3.60
2023-03-21T11:15:58.544Z,3.95
2023-03-21T11:18:27.788Z,4.00
2023-03-21T11:20:58.023Z,3.47
2023-03-21T11:23:29.701Z,3.40
2023-03-21T11:25:59.112Z,3.25
2023-03-21T11:28:33.461Z,3.40
2023-03-21T11:31:05.248Z,3.25
2023-03-21T11:33:36.681Z,3.25
2023-03-21T11:36:18.918Z,2.88
2023-03-21T11:38:53.619Z,2.65
2023-03-21T11:41:31.099Z,3.05
2023-03-21T11:43:59.619Z,3.00
2023-03-21T11:46:31.818Z,3.10
2023-03-21T11:49:00.089Z,3.35
2023-03-21T11:51:54.187Z,3.05
2023-03-21T11:54:28.311Z,2.97
2023-03-21T11:57:14.511Z,3.35
2023-03-21T12:00:14.427Z,3.08
2023-03-21T12:03:06.234Z,3.22
2023-03-21T12:05:41.841Z,3.30
2023-03-21T12:08:27.184Z,3.38
2023-03-21T12:11:13.359Z,2.97
2023-03-21T12:14:07.271Z,3.30
2023-03-21T12:16:49.122Z,3.00
2023-03-21T12:19:27.683Z,2.85
2023-03-21T12:22:24.984Z,2.88
2023-03-21T12:24:55.562Z,3.05
2023-03-21T12:27:37.614Z,3.03
2023-03-21T12:30:24.678Z,3.10
2023-03-21T12:33:09.506Z,2.75
2023-03-21T12:36:04.592Z,2.90
2023-03-21T12:38:41.574Z,2.63
2023-03-21T12:41:25.525Z,2.80
2023-03-21T12:44:18.600Z,2.75
2023-03-21T12:46:48.339Z,2.80
2023-03-21T12:49:32.433Z,2.50
2023-03-21T12:52:08.124Z,2.90
2023-03-21T12:54:38.742Z,2.78
2023-03-21T12:57:15.634Z,2.50
2023-03-21T12:59:48.406Z,2.80
2023-03-21T13:02:22.666Z,3.00
2023-03-21T13:05:00.162Z,2.85
2023-03-21T13:07:32.433Z,2.50
2023-03-21T13:10:02.244Z,2.70
2023-03-21T13:12:56.235Z,2.80
2023-03-21T13:15:38.034Z,2.40
2023-03-21T13:18:23.086Z,2.38
2023-03-21T13:20:57.034Z,2.85
2023-03-21T13:23:26.174Z,2.80
2023-03-21T13:25:55.835Z,2.50
2023-03-21T13:28:27.800Z,2.78
2023-03-21T13:33:45.052Z,3.10
2023-03-21T13:36:39.662Z,3.20
2023-03-21T13:39:06.982Z,3.35
2023-03-21T13:41:40.723Z,3.40
2023-03-21T13:44:25.548Z,3.20
2023-03-21T13:47:01.570Z,3.35
2023-03-21T13:49:34.655Z,3.10
2023-03-21T13:52:23.774Z,3.22
2023-03-21T13:54:56.102Z,3.28
2023-03-21T13:57:38.741Z,3.40
2023-03-21T14:00:17.853Z,2.92
2023-03-21T14:03:00.364Z,3.00
2023-03-21T14:05:28.858Z,2.83
2023-03-21T14:08:12.333Z,2.95
2023-03-21T14:10:49.253Z,2.90
2023-03-21T14:13:19.514Z,3.20
2023-03-21T14:15:57.823Z,3.30
2023-03-21T14:18:41.214Z,3.17
2023-03-21T14:21:24.264Z,3.40
2023-03-21T14:24:05.623Z,3.30
2023-03-21T14:26:36.315Z,3.10
2023-03-21T14:29:09.666Z,3.10
2023-03-21T14:31:47.439Z,3.25
2023-03-21T14:34:16.908Z,3.35
2023-03-21T14:36:51.673Z,3.50
2023-03-21T14:39:27.382Z,3.25
2023-03-21T14:44:28.086Z,2.97
2023-03-21T14:47:02.087Z,3.13
2023-03-21T14:49:31.210Z,2.92
2023-03-21T14:52:08.053Z,2.80
2023-03-21T14:54:35.001Z,2.85
2023-03-21T14:57:05.284Z,3.33
2023-03-21T14:59:38.550Z,3.30
2023-03-21T15:02:16.966Z,3.45
2023-03-21T15:05:06.183Z,4.38
2023-03-21T15:07:36.286Z,3.55
2023-03-21T15:10:14.046Z,3.38
2023-03-21T15:12:51.152Z,3.17
2023-03-21T15:15:18.907Z,3.20
2023-03-21T15:17:46.559Z,3.10
2023-03-21T15:20:16.906Z,3.30
2023-03-21T15:22:51.660Z,3.50
2023-03-21T15:25:25.918Z,3.33
2023-03-21T15:27:52.877Z,3.25
2023-03-21T15:30:28.041Z,3.55
2023-03-21T15:32:59.450Z,3.28
2023-03-21T15:35:38.793Z,3.17
2023-03-21T15:38:06.787Z,3.38
2023-03-21T15:40:35.735Z,3.35
2023-03-21T15:43:15.985Z,3.13
2023-03-21T15:45:49.240Z,2.88
2023-03-21T15:48:16.631Z,3.30
2023-03-21T15:51:02.320Z,3.45
2023-03-21T15:53:36.231Z,3.30
2023-03-21T15:56:06.149Z,3.05
2023-03-21T15:58:41.401Z,3.38
2023-03-21T16:01:18.055Z,3.35
2023-03-21T16:04:07.440Z,3.40
2023-03-21T16:06:37.037Z,3.47
2023-03-21T16:09:23.527Z,3.88
2023-03-21T16:11:54.254Z,4.07
2023-03-21T16:14:22.480Z,3.80
2023-03-21T16:16:50.300Z,3.65
2023-03-21T16:19:17.326Z,3.35
2023-03-21T16:21:44.082Z,3.20
2023-03-21T16:24:12.608Z,3.83
2023-03-21T16:26:46.063Z,3.55
2023-03-21T16:29:15.598Z,3.30
2023-03-21T16:31:43.081Z,4.18
2023-03-21T16:34:10.797Z,3.40
2023-03-21T16:36:40.370Z,3.65
2023-03-21T16:39:19.529Z,3.22
2023-03-21T16:41:47.307Z,3.58
2023-03-21T16:44:14.610Z,3.80
2023-03-21T16:46:41.404Z,3.67
2023-03-21T16:49:18.907Z,3.45
2023-03-21T16:51:45.742Z,3.58
2023-03-21T16:54:12.553Z,4.85
2023-03-21T16:56:43.242Z,3.55
2023-03-21T16:59:13.304Z,3.80
2023-03-21T17:01:41.481Z,5.13
2023-03-21T17:04:09.145Z,4.80
2023-03-21T17:06:44.739Z,4.45
2023-03-21T17:09:14.269Z,4.90
2023-03-21T17:11:44.368Z,4.50
2023-03-21T17:14:12.943Z,4.20
2023-03-21T17:16:42.816Z,4.50
2023-03-21T17:19:15.065Z,4.60
2023-03-21T17:21:41.810Z,4.95
2023-03-21T17:24:08.751Z,4.13
2023-03-21T17:26:36.514Z,4.72
2023-03-21T17:29:04.080Z,5.10
2023-03-21T17:31:36.872Z,5.60
2023-03-21T17:34:04.612Z,5.03
2023-03-21T17:36:37.319Z,5.07
2023-03-21T17:39:09.658Z,5.25
2023-03-21T17:41:36.513Z,5.47
2023-03-21T17:44:03.381Z,5.85
2023-03-21T17:46:36.842Z,5.80
2023-03-21T17:49:04.387Z,5.75
2023-03-21T17:51:33.073Z,6.18
2023-03-21T17:54:00.370Z,7.22
2023-03-21T17:56:32.676Z,6.70
2023-03-21T17:59:02.051Z,7.25
2023-03-21T18:01:30.935Z,8.73
2023-03-21T18:03:58.912Z,9.68
2023-03-21T18:06:26.823Z,8.88
2023-03-21T18:08:54.639Z,10.18
2023-03-21T18:11:23.171Z,10.35
2023-03-21T18:13:50.375Z,10.18
2023-03-21T18:16:22.961Z,11.23
2023-03-21T18:18:50.968Z,11.35
2023-03-21T18:21:20.243Z,11.90
2023-03-21T18:23:47.603Z,12.15
2023-03-21T18:26:17.696Z,12.82
2023-03-21T18:28:45.500Z,13.95
2023-03-21T18:31:20.444Z,12.73
2023-03-21T18:33:49.182Z,12.65
2023-03-21T18:36:24.725Z,11.60
2023-03-21T18:38:52.167Z,13.48
2023-03-21T18:41:19.833Z,13.50
2023-03-21T18:44:17.535Z,13.10
2023-03-21T18:46:33.937Z,13.38
2023-03-21T18:49:19.836Z,14.15
2023-03-21T18:51:47.997Z,13.70
2023-03-21T18:54:14.903Z,14.60
2023-03-21T18:59:38.889Z,13.98
2023-03-21T19:02:07.599Z,13.43
2023-03-21T19:04:34.473Z,13.25
2023-03-21T19:07:01.346Z,14.52
2023-03-21T19:09:31.811Z,12.88
2023-03-21T19:11:59.931Z,12.57
2023-03-21T19:14:26.978Z,12.80
2023-03-21T19:17:43.620Z,12.38
2023-03-21T19:19:43.358Z,12.35
2023-03-21T19:22:10.568Z,11.27
2023-03-21T19:24:39.713Z,11.60
2023-03-21T19:27:07.013Z,12.30
2023-03-21T19:29:34.006Z,12.10
2023-03-21T19:32:01.479Z,11.50
2023-03-21T19:34:29.398Z,10.82
2023-03-21T19:36:57.543Z,10.68
2023-03-21T19:39:25.132Z,9.88
2023-03-21T19:41:55.379Z,10.98
2023-03-21T19:44:30.926Z,11.10
2023-03-21T19:46:57.910Z,11.70
2023-03-21T19:49:34.662Z,10.45
2023-03-21T19:52:03.688Z,10.82
2023-03-21T19:54:30.498Z,10.60
2023-03-21T19:56:57.364Z,10.15
2023-03-21T19:59:24.104Z,9.48
2023-03-21T20:01:56.406Z,9.82
2023-03-21T20:04:25.639Z,10.07
2023-03-21T20:06:57.078Z,8.98
2023-03-21T20:09:50.158Z,8.90
2023-03-21T20:12:11.890Z,9.02
2023-03-21T20:14:38.853Z,9.23
2023-03-21T20:17:06.008Z,9.40
2023-03-21T20:19:32.853Z,9.30
2023-03-21T20:22:02.604Z,9.55
2023-03-21T20:24:30.426Z,9.93
2023-03-21T20:26:57.752Z,10.40
2023-03-21T20:32:11.389Z,9.32
2023-03-21T20:34:38.339Z,10.05
2023-03-21T20:37:06.307Z,11.38
2023-03-21T20:39:33.511Z,10.27
2023-03-21T20:42:00.403Z,9.63
2023-03-21T20:44:48.504Z,8.98
2023-03-21T20:47:14.920Z,9.30
2023-03-21T20:49:41.727Z,8.85
2023-03-21T20:52:54.470Z,8.93
2023-03-21T20:54:59.366Z,8.90
2023-03-21T20:57:30.183Z,9.52
2023-03-21T20:59:57.619Z,9.23
2023-03-21T21:02:24.851Z,9.27
2023-03-21T21:05:23.676Z,8.07
2023-03-21T21:07:41.841Z,9.65
2023-03-21T21:10:14.289Z,8.35
2023-03-21T21:12:45.120Z,9.40
2023-03-21T21:15:14.299Z,8.82
2023-03-21T21:18:04.829Z,9.07
2023-03-21T21:20:28.307Z,8.85
2023-03-21T21:23:00.549Z,8.45
2023-03-21T21:25:30.522Z,8.68
2023-03-21T21:27:57.497Z,8.15
2023-03-21T21:30:24.808Z,7.93
2023-03-21T21:32:51.598Z,8.50
2023-03-21T21:35:19.685Z,8.52
2023-03-21T21:37:47.083Z,7.93
2023-03-21T21:40:20.278Z,7.90
2023-03-21T21:42:47.213Z,7.25
2023-03-21T21:45:14.557Z,7.80
2023-03-21T21:47:43.900Z,7.63
2023-03-21T21:50:11.238Z,7.55
2023-03-21T21:52:37.967Z,7.57
2023-03-21T21:55:06.528Z,7.88
2023-03-21T21:57:34.548Z,7.80
2023-03-21T22:00:06.641Z,7.00
2023-03-21T22:02:33.767Z,7.13
2023-03-21T22:05:00.698Z,7.45
2023-03-21T22:07:28.982Z,7.53
2023-03-21T22:09:56.176Z,7.07
2023-03-21T22:12:23.420Z,7.20
2023-03-21T22:14:50.334Z,7.10
2023-03-21T22:17:17.175Z,7.15
2023-03-21T22:19:52.673Z,7.05
2023-03-21T22:22:26.189Z,7.05
2023-03-21T22:24:56.329Z,7.07
2023-03-21T22:27:23.154Z,6.45
2023-03-21T22:29:49.925Z,7.15
2023-03-21T22:32:16.798Z,6.95
2023-03-21T22:34:43.527Z,7.05
2023-03-21T22:37:10.372Z,6.95
2023-03-21T22:39:37.542Z,7.07
2023-03-21T22:42:04.998Z,7.10
2023-03-21T22:44:35.658Z,6.82
2023-03-21T22:47:05.687Z,6.80
2023-03-21T22:49:33.021Z,6.85
2023-03-21T22:52:01.119Z,5.72
2023-03-21T22:54:27.916Z,6.68
2023-03-21T22:56:54.734Z,6.90
2023-03-21T22:59:21.614Z,6.28
2023-03-21T23:01:49.281Z,6.60
2023-03-21T23:04:16.371Z,7.05
2023-03-21T23:06:43.849Z,5.88
2023-03-21T23:09:10.935Z,6.85
2023-03-21T23:11:38.614Z,5.82
2023-03-21T23:14:08.451Z,6.20
2023-03-21T23:16:38.485Z,6.75
2023-03-21T23:19:06.230Z,6.60
2023-03-21T23:21:36.479Z,6.15
2023-03-21T23:24:03.339Z,6.07
2023-03-21T23:26:30.672Z,6.15
2023-03-21T23:28:57.634Z,5.80
2023-03-21T23:31:26.709Z,6.63
2023-03-21T23:33:54.343Z,6.65
2023-03-21T23:36:21.779Z,6.20
2023-03-21T23:38:48.699Z,6.50
2023-03-21T23:41:19.267Z,6.38
2023-03-21T23:43:46.928Z,7.28
2023-03-21T23:46:15.519Z,6.80
2023-03-21T23:48:43.376Z,6.95
2023-03-21T23:51:15.967Z,6.47
2023-03-21T23:53:44.446Z,7.00
2023-03-21T23:56:23.650Z,6.90
2023-03-21T23:58:51.336Z,6.88
